Gardens Corner, South Carolina
Current Conditions -  °F | °C
As of 1:56 AM on Sunday 23 Nov 2014 (Local Time) from KNBC Reporting Station
Light Rain Light Rain  
Wind Chill: 57°   Ceiling: 7000
Heat Index: 57°   Visibility: 7mi
Dew Point: 55°   Wind: 8mph
Humidity: 93%   Direction: 50°NE
Pressure: 30.19"   Gusts: NA
Location:  32.642°N, 80.8085°W
Report Text: KNBC 230656Z AUTO 05007KT 7SM -RA FEW038 OVC070 14/13 A3019 RMK AO2 RAB26 SLP224 P0002 T01390128 $
Loading
Personal Weather Stations






























Interactive Weather Map New forecast layout! Learn more

10-Day Weather Forecast

Advertisements
Track Severe Weather on mobile